sensor_id;sensor_type;location;lat;lon;timestamp;pressure;altitude;pressure_sealevel;temperature;humidity
51928;BME280;37953;52.806;18.270;2023-09-07T00:01:31;101592.34;;;19.24;100.00
51928;BME280;37953;52.806;18.270;2023-09-07T00:03:57;101592.38;;;19.22;100.00
51928;BME280;37953;52.806;18.270;2023-09-07T00:06:23;101600.31;;;19.21;100.00
51928;BME280;37953;52.806;18.270;2023-09-07T00:08:50;101595.97;;;19.18;100.00
51928;BME280;37953;52.806;18.270;2023-09-07T00:11:16;101597.78;;;19.13;100.00
51928;BME280;37953;52.806;18.270;2023-09-07T00:13:41;101605.66;;;19.15;100.00
51928;BME280;37953;52.806;18.270;2023-09-07T00:16:08;101602.25;;;19.09;100.00
51928;BME280;37953;52.806;18.270;2023-09-07T00:18:34;101599.63;;;19.06;100.00
51928;BME280;37953;52.806;18.270;2023-09-07T00:21:00;101597.91;;;19.04;100.00
51928;BME280;37953;52.806;18.270;2023-09-07T00:23:27;101598.84;;;19.01;100.00
51928;BME280;37953;52.806;18.270;2023-09-07T00:25:53;101602.41;;;18.99;100.00
51928;BME280;37953;52.806;18.270;2023-09-07T00:28:19;101594.50;;;18.97;100.00
51928;BME280;37953;52.806;18.270;2023-09-07T00:30:45;101609.47;;;18.95;100.00
51928;BME280;37953;52.806;18.270;2023-09-07T00:33:10;101600.78;;;18.88;100.00
51928;BME280;37953;52.806;18.270;2023-09-07T00:35:37;101605.13;;;18.91;100.00
51928;BME280;37953;52.806;18.270;2023-09-07T00:38:03;101615.66;;;18.89;100.00
51928;BME280;37953;52.806;18.270;2023-09-07T00:40:30;101608.63;;;18.90;100.00
51928;BME280;37953;52.806;18.270;2023-09-07T00:43:08;101614.81;;;18.89;100.00
51928;BME280;37953;52.806;18.270;2023-09-07T00:45:35;101612.22;;;18.86;100.00
51928;BME280;37953;52.806;18.270;2023-09-07T00:48:01;101615.75;;;18.83;100.00
51928;BME280;37953;52.806;18.270;2023-09-07T00:50:28;101612.25;;;18.84;100.00
51928;BME280;37953;52.806;18.270;2023-09-07T00:52:54;101605.28;;;18.79;100.00
51928;BME280;37953;52.806;18.270;2023-09-07T00:55:21;101603.53;;;18.75;100.00
51928;BME280;37953;52.806;18.270;2023-09-07T00:57:53;101602.69;;;18.72;100.00
51928;BME280;37953;52.806;18.270;2023-09-07T01:00:21;101598.34;;;18.68;100.00
51928;BME280;37953;52.806;18.270;2023-09-07T01:02:47;101602.75;;;18.69;100.00
51928;BME280;37953;52.806;18.270;2023-09-07T01:05:13;101594.88;;;18.68;100.00
51928;BME280;37953;52.806;18.270;2023-09-07T01:07:53;101597.50;;;18.68;100.00
51928;BME280;37953;52.806;18.270;2023-09-07T01:10:20;101601.97;;;18.63;100.00
51928;BME280;37953;52.806;18.270;2023-09-07T01:12:47;101600.19;;;18.62;100.00
51928;BME280;37953;52.806;18.270;2023-09-07T01:15:13;101603.75;;;18.61;100.00
51928;BME280;37953;52.806;18.270;2023-09-07T01:17:39;101592.34;;;18.59;100.00
51928;BME280;37953;52.806;18.270;2023-09-07T01:20:08;101595.00;;;18.59;100.00
51928;BME280;37953;52.806;18.270;2023-09-07T01:22:36;101598.47;;;18.59;100.00
51928;BME280;37953;52.806;18.270;2023-09-07T01:25:09;101593.22;;;18.59;100.00
51928;BME280;37953;52.806;18.270;2023-09-07T01:27:36;101594.13;;;18.57;100.00
51928;BME280;37953;52.806;18.270;2023-09-07T01:30:02;101595.00;;;18.56;100.00
51928;BME280;37953;52.806;18.270;2023-09-07T01:32:28;101596.78;;;18.54;100.00
51928;BME280;37953;52.806;18.270;2023-09-07T01:34:57;101601.25;;;18.50;100.00
51928;BME280;37953;52.806;18.270;2023-09-07T01:37:23;101597.75;;;18.48;100.00
51928;BME280;37953;52.806;18.270;2023-09-07T01:39:55;101597.78;;;18.45;100.00
51928;BME280;37953;52.806;18.270;2023-09-07T01:42:21;101593.47;;;18.38;100.00
51928;BME280;37953;52.806;18.270;2023-09-07T01:44:47;101606.59;;;18.39;100.00
51928;BME280;37953;52.806;18.270;2023-09-07T01:47:13;101603.16;;;18.37;100.00
51928;BME280;37953;52.806;18.270;2023-09-07T01:49:39;101611.00;;;18.39;100.00
51928;BME280;37953;52.806;18.270;2023-09-07T01:52:05;101610.16;;;18.37;100.00
51928;BME280;37953;52.806;18.270;2023-09-07T01:54:31;101609.28;;;18.38;100.00
51928;BME280;37953;52.806;18.270;2023-09-07T01:56:58;101613.69;;;18.36;100.00
51928;BME280;37953;52.806;18.270;2023-09-07T01:59:24;101606.72;;;18.31;100.00
51928;BME280;37953;52.806;18.270;2023-09-07T02:01:49;101605.84;;;18.28;100.00
51928;BME280;37953;52.806;18.270;2023-09-07T02:04:15;101601.50;;;18.25;100.00
51928;BME280;37953;52.806;18.270;2023-09-07T02:06:41;101605.91;;;18.25;100.00
51928;BME280;37953;52.806;18.270;2023-09-07T02:09:07;101612.03;;;18.24;100.00
51928;BME280;37953;52.806;18.270;2023-09-07T02:11:33;101606.78;;;18.24;100.00
51928;BME280;37953;52.806;18.270;2023-09-07T02:13:59;101607.69;;;18.23;100.00
51928;BME280;37953;52.806;18.270;2023-09-07T02:16:25;101609.41;;;18.22;100.00
51928;BME280;37953;52.806;18.270;2023-09-07T02:19:06;101605.00;;;18.24;100.00
51928;BME280;37953;52.806;18.270;2023-09-07T02:21:32;101607.69;;;18.21;100.00
51928;BME280;37953;52.806;18.270;2023-09-07T02:23:58;101605.13;;;18.17;100.00
51928;BME280;37953;52.806;18.270;2023-09-07T02:26:24;101603.41;;;18.13;100.00
51928;BME280;37953;52.806;18.270;2023-09-07T02:28:51;101594.66;;;18.07;100.00
51928;BME280;37953;52.806;18.270;2023-09-07T02:31:16;101610.50;;;18.04;100.00
51928;BME280;37953;52.806;18.270;2023-09-07T02:33:43;101613.19;;;18.00;100.00
51928;BME280;37953;52.806;18.270;2023-09-07T02:36:09;101606.19;;;17.96;100.00
51928;BME280;37953;52.806;18.270;2023-09-07T02:38:35;101600.06;;;17.95;100.00
51928;BME280;37953;52.806;18.270;2023-09-07T02:41:01;101603.56;;;17.94;100.00
51928;BME280;37953;52.806;18.270;2023-09-07T02:43:28;101608.88;;;17.91;100.00
51928;BME280;37953;52.806;18.270;2023-09-07T02:45:54;101602.72;;;17.90;100.00
51928;BME280;37953;52.806;18.270;2023-09-07T02:48:20;101601.00;;;17.89;100.00
51928;BME280;37953;52.806;18.270;2023-09-07T02:50:48;101602.78;;;17.87;100.00
51928;BME280;37953;52.806;18.270;2023-09-07T02:53:16;101608.03;;;17.86;100.00
51928;BME280;37953;52.806;18.270;2023-09-07T02:55:42;101609.78;;;17.85;100.00
51928;BME280;37953;52.806;18.270;2023-09-07T02:58:08;101608.94;;;17.83;100.00
51928;BME280;37953;52.806;18.270;2023-09-07T03:00:34;101613.34;;;17.83;100.00
51928;BME280;37953;52.806;18.270;2023-09-07T03:03:01;101602.78;;;17.81;100.00
51928;BME280;37953;52.806;18.270;2023-09-07T03:05:28;101606.28;;;17.82;100.00
51928;BME280;37953;52.806;18.270;2023-09-07T03:07:54;101609.81;;;17.79;100.00
51928;BME280;37953;52.806;18.270;2023-09-07T03:10:20;101610.72;;;17.75;100.00
51928;BME280;37953;52.806;18.270;2023-09-07T03:12:46;101609.88;;;17.73;100.00
51928;BME280;37953;52.806;18.270;2023-09-07T03:15:12;101608.16;;;17.70;100.00
51928;BME280;37953;52.806;18.270;2023-09-07T03:17:38;101615.13;;;17.73;100.00
51928;BME280;37953;52.806;18.270;2023-09-07T03:20:04;101613.34;;;17.75;100.00
51928;BME280;37953;52.806;18.270;2023-09-07T03:22:44;101605.47;;;17.74;100.00
51928;BME280;37953;52.806;18.270;2023-09-07T03:25:10;101609.75;;;17.88;100.00
51928;BME280;37953;52.806;18.270;2023-09-07T03:27:37;101611.63;;;17.74;100.00
51928;BME280;37953;52.806;18.270;2023-09-07T03:30:04;101611.63;;;17.71;100.00
51928;BME280;37953;52.806;18.270;2023-09-07T03:32:34;101614.31;;;17.68;100.00
51928;BME280;37953;52.806;18.270;2023-09-07T03:35:00;101620.47;;;17.65;100.00
51928;BME280;37953;52.806;18.270;2023-09-07T03:37:29;101611.69;;;17.65;100.00
51928;BME280;37953;52.806;18.270;2023-09-07T03:39:55;101611.72;;;17.62;100.00
51928;BME280;37953;52.806;18.270;2023-09-07T03:42:22;101616.13;;;17.60;100.00
51928;BME280;37953;52.806;18.270;2023-09-07T03:44:48;101613.50;;;17.57;100.00
51928;BME280;37953;52.806;18.270;2023-09-07T03:47:14;101618.78;;;17.55;100.00
51928;BME280;37953;52.806;18.270;2023-09-07T03:49:43;101612.66;;;17.55;100.00
51928;BME280;37953;52.806;18.270;2023-09-07T03:52:10;101620.56;;;17.55;100.00
51928;BME280;37953;52.806;18.270;2023-09-07T03:54:37;101621.41;;;17.54;100.00
51928;BME280;37953;52.806;18.270;2023-09-07T03:57:03;101615.31;;;17.52;100.00
51928;BME280;37953;52.806;18.270;2023-09-07T03:59:29;101617.94;;;17.52;100.00
51928;BME280;37953;52.806;18.270;2023-09-07T04:01:55;101611.81;;;17.49;100.00
51928;BME280;37953;52.806;18.270;2023-09-07T04:04:21;101617.97;;;17.48;100.00
51928;BME280;37953;52.806;18.270;2023-09-07T04:06:48;101625.00;;;17.46;100.00
51928;BME280;37953;52.806;18.270;2023-09-07T04:09:13;101613.63;;;17.41;100.00
51928;BME280;37953;52.806;18.270;2023-09-07T04:11:40;101622.38;;;17.45;100.00
51928;BME280;37953;52.806;18.270;2023-09-07T04:14:06;101618.00;;;17.42;100.00
51928;BME280;37953;52.806;18.270;2023-09-07T04:16:32;101617.16;;;17.40;100.00
51928;BME280;37953;52.806;18.270;2023-09-07T04:18:58;101612.75;;;17.41;100.00
51928;BME280;37953;52.806;18.270;2023-09-07T04:21:24;101621.53;;;17.38;100.00
51928;BME280;37953;52.806;18.270;2023-09-07T04:23:50;101627.66;;;17.40;100.00
51928;BME280;37953;52.806;18.270;2023-09-07T04:26:16;101624.13;;;17.40;100.00
51928;BME280;37953;52.806;18.270;2023-09-07T04:28:42;101632.03;;;17.38;100.00
51928;BME280;37953;52.806;18.270;2023-09-07T04:31:08;101628.56;;;17.38;100.00
51928;BME280;37953;52.806;18.270;2023-09-07T04:33:34;101635.53;;;17.37;100.00
51928;BME280;37953;52.806;18.270;2023-09-07T04:36:13;101639.03;;;17.39;100.00
51928;BME280;37953;52.806;18.270;2023-09-07T04:38:40;101630.31;;;17.36;100.00
51928;BME280;37953;52.806;18.270;2023-09-07T04:41:07;101637.31;;;17.38;100.00
51928;BME280;37953;52.806;18.270;2023-09-07T04:43:33;101640.78;;;17.37;100.00
51928;BME280;37953;52.806;18.270;2023-09-07T04:45:59;101639.94;;;17.35;100.00
51928;BME280;37953;52.806;18.270;2023-09-07T04:48:26;101643.44;;;17.34;100.00
51928;BME280;37953;52.806;18.270;2023-09-07T04:51:05;101635.56;;;17.33;100.00
51928;BME280;37953;52.806;18.270;2023-09-07T04:53:32;101649.56;;;17.35;100.00
51928;BME280;37953;52.806;18.270;2023-09-07T04:55:59;101646.06;;;17.33;100.00
51928;BME280;37953;52.806;18.270;2023-09-07T04:58:25;101638.19;;;17.31;100.00
51928;BME280;37953;52.806;18.270;2023-09-07T05:00:52;101659.22;;;17.34;100.00
51928;BME280;37953;52.806;18.270;2023-09-07T05:03:17;101651.34;;;17.36;100.00
51928;BME280;37953;52.806;18.270;2023-09-07T05:05:44;101660.94;;;17.38;100.00
51928;BME280;37953;52.806;18.270;2023-09-07T05:08:11;101655.69;;;17.38;100.00
51928;BME280;37953;52.806;18.270;2023-09-07T05:10:43;101668.78;;;17.41;100.00
51928;BME280;37953;52.806;18.270;2023-09-07T05:13:09;101657.41;;;17.41;100.00
51928;BME280;37953;52.806;18.270;2023-09-07T05:15:35;101662.66;;;17.42;100.00
51928;BME280;37953;52.806;18.270;2023-09-07T05:18:01;101667.03;;;17.43;100.00
51928;BME280;37953;52.806;18.270;2023-09-07T05:20:30;101669.66;;;17.45;100.00
51928;BME280;37953;52.806;18.270;2023-09-07T05:22:56;101660.91;;;17.43;100.00
51928;BME280;37953;52.806;18.270;2023-09-07T05:25:22;101672.28;;;17.45;100.00
51928;BME280;37953;52.806;18.270;2023-09-07T05:27:48;101667.88;;;17.47;100.00
51928;BME280;37953;52.806;18.270;2023-09-07T05:30:14;101667.00;;;17.48;100.00
51928;BME280;37953;52.806;18.270;2023-09-07T05:32:40;101665.22;;;17.50;100.00
51928;BME280;37953;52.806;18.270;2023-09-07T05:35:07;101682.75;;;17.51;100.00
51928;BME280;37953;52.806;18.270;2023-09-07T05:37:34;101679.22;;;17.54;100.00
51928;BME280;37953;52.806;18.270;2023-09-07T05:40:00;101675.69;;;17.56;100.00
51928;BME280;37953;52.806;18.270;2023-09-07T05:42:26;101683.56;;;17.58;100.00
51928;BME280;37953;52.806;18.270;2023-09-07T05:44:52;101680.03;;;17.60;100.00
51928;BME280;37953;52.806;18.270;2023-09-07T05:47:18;101681.78;;;17.63;100.00
51928;BME280;37953;52.806;18.270;2023-09-07T05:49:44;101675.66;;;17.65;100.00
51928;BME280;37953;52.806;18.270;2023-09-07T05:52:10;101680.00;;;17.68;100.00
51928;BME280;37953;52.806;18.270;2023-09-07T05:54:36;101675.59;;;17.72;100.00
51928;BME280;37953;52.806;18.270;2023-09-07T05:57:02;101681.69;;;17.74;100.00
51928;BME280;37953;52.806;18.270;2023-09-07T05:59:28;101688.66;;;17.79;100.00
51928;BME280;37953;52.806;18.270;2023-09-07T06:01:54;101686.91;;;17.81;100.00
51928;BME280;37953;52.806;18.270;2023-09-07T06:04:20;101685.16;;;17.85;100.00
51928;BME280;37953;52.806;18.270;2023-09-07T06:06:47;101683.34;;;17.88;100.00
51928;BME280;37953;52.806;18.270;2023-09-07T06:09:13;101681.63;;;17.89;100.00
51928;BME280;37953;52.806;18.270;2023-09-07T06:11:39;101681.59;;;17.90;100.00
51928;BME280;37953;52.806;18.270;2023-09-07T06:14:05;101692.97;;;17.96;100.00
51928;BME280;37953;52.806;18.270;2023-09-07T06:16:31;101697.31;;;18.00;100.00
51928;BME280;37953;52.806;18.270;2023-09-07T06:18:57;101699.91;;;18.03;100.00
51928;BME280;37953;52.806;18.270;2023-09-07T06:21:23;101702.47;;;18.07;100.00
51928;BME280;37953;52.806;18.270;2023-09-07T06:23:50;101704.25;;;18.10;100.00
51928;BME280;37953;52.806;18.270;2023-09-07T06:26:15;101715.56;;;18.17;100.00
51928;BME280;37953;52.806;18.270;2023-09-07T06:28:43;101715.53;;;18.20;100.00
51928;BME280;37953;52.806;18.270;2023-09-07T06:31:09;101714.63;;;18.22;100.00
51928;BME280;37953;52.806;18.270;2023-09-07T06:33:35;101717.25;;;18.27;100.00
51928;BME280;37953;52.806;18.270;2023-09-07T06:36:01;101726.84;;;18.29;100.00
51928;BME280;37953;52.806;18.270;2023-09-07T06:38:28;101721.56;;;18.33;100.00
51928;BME280;37953;52.806;18.270;2023-09-07T06:41:00;101717.16;;;18.35;100.00
51928;BME280;37953;52.806;18.270;2023-09-07T06:43:26;101725.91;;;18.37;100.00
51928;BME280;37953;52.806;18.270;2023-09-07T06:45:52;101723.25;;;18.38;100.00
51928;BME280;37953;52.806;18.270;2023-09-07T06:48:18;101722.34;;;18.42;100.00
51928;BME280;37953;52.806;18.270;2023-09-07T06:50:44;101724.06;;;18.45;100.00
51928;BME280;37953;52.806;18.270;2023-09-07T06:53:10;101721.44;;;18.48;100.00
51928;BME280;37953;52.806;18.270;2023-09-07T06:55:36;101719.66;;;18.50;100.00
51928;BME280;37953;52.806;18.270;2023-09-07T06:58:03;101727.50;;;18.53;100.00
51928;BME280;37953;52.806;18.270;2023-09-07T07:00:29;101729.22;;;18.57;100.00
51928;BME280;37953;52.806;18.270;2023-09-07T07:02:55;101721.28;;;18.60;100.00
51928;BME280;37953;52.806;18.270;2023-09-07T07:05:21;101716.84;;;18.64;100.00
51928;BME280;37953;52.806;18.270;2023-09-07T07:07:49;101722.13;;;18.65;100.00
51928;BME280;37953;52.806;18.270;2023-09-07T07:10:15;101720.34;;;18.69;100.00
51928;BME280;37953;52.806;18.270;2023-09-07T07:12:41;101729.03;;;18.72;100.00
51928;BME280;37953;52.806;18.270;2023-09-07T07:15:08;101726.41;;;18.76;100.00
51928;BME280;37953;52.806;18.270;2023-09-07T07:17:34;101729.88;;;18.81;100.00
51928;BME280;37953;52.806;18.270;2023-09-07T07:20:00;101729.84;;;18.84;100.00
51928;BME280;37953;52.806;18.270;2023-09-07T07:22:29;101728.03;;;18.87;100.00
51928;BME280;37953;52.806;18.270;2023-09-07T07:24:55;101740.28;;;18.90;100.00
51928;BME280;37953;52.806;18.270;2023-09-07T07:27:21;101729.72;;;18.95;100.00
51928;BME280;37953;52.806;18.270;2023-09-07T07:29:47;101735.81;;;18.98;100.00
51928;BME280;37953;52.806;18.270;2023-09-07T07:32:13;101740.16;;;19.02;100.00
51928;BME280;37953;52.806;18.270;2023-09-07T07:34:39;101733.97;;;19.06;100.00
51928;BME280;37953;52.806;18.270;2023-09-07T07:37:05;101742.69;;;19.10;100.00
51928;BME280;37953;52.806;18.270;2023-09-07T07:39:31;101748.78;;;19.15;100.00
51928;BME280;37953;52.806;18.270;2023-09-07T07:41:57;101743.47;;;19.18;100.00
51928;BME280;37953;52.806;18.270;2023-09-07T07:44:23;101746.06;;;19.21;100.00
51928;BME280;37953;52.806;18.270;2023-09-07T07:46:49;101736.38;;;19.25;100.00
51928;BME280;37953;52.806;18.270;2023-09-07T07:49:15;101745.13;;;19.28;100.00
51928;BME280;37953;52.806;18.270;2023-09-07T07:51:42;101745.94;;;19.32;100.00
51928;BME280;37953;52.806;18.270;2023-09-07T07:54:08;101748.47;;;19.38;100.00
51928;BME280;37953;52.806;18.270;2023-09-07T07:56:34;101744.03;;;19.43;100.00
51928;BME280;37953;52.806;18.270;2023-09-07T07:59:00;101748.38;;;19.47;100.00
51928;BME280;37953;52.806;18.270;2023-09-07T08:01:26;101746.53;;;19.51;100.00
51928;BME280;37953;52.806;18.270;2023-09-07T08:03:52;101751.75;;;19.56;100.00
51928;BME280;37953;52.806;18.270;2023-09-07T08:06:19;101757.00;;;19.59;100.00
51928;BME280;37953;52.806;18.270;2023-09-07T08:08:46;101756.06;;;19.63;100.00
51928;BME280;37953;52.806;18.270;2023-09-07T08:11:12;101757.75;;;19.67;100.00
51928;BME280;37953;52.806;18.270;2023-09-07T08:13:41;101755.09;;;19.70;100.00
51928;BME280;37953;52.806;18.270;2023-09-07T08:16:07;101762.97;;;19.73;100.00
51928;BME280;37953;52.806;18.270;2023-09-07T08:18:34;101759.34;;;19.79;100.00
51928;BME280;37953;52.806;18.270;2023-09-07T08:21:00;101761.09;;;19.81;100.00
51928;BME280;37953;52.806;18.270;2023-09-07T08:23:26;101763.66;;;19.86;100.00
51928;BME280;37953;52.806;18.270;2023-09-07T08:25:52;101764.47;;;19.89;100.00
51928;BME280;37953;52.806;18.270;2023-09-07T08:28:18;101769.72;;;19.92;100.00
51928;BME280;37953;52.806;18.270;2023-09-07T08:30:45;101760.00;;;19.95;100.00
51928;BME280;37953;52.806;18.270;2023-09-07T08:33:11;101762.56;;;19.99;100.00
51928;BME280;37953;52.806;18.270;2023-09-07T08:35:37;101758.97;;;20.05;100.00
51928;BME280;37953;52.806;18.270;2023-09-07T08:38:12;101759.75;;;20.10;100.00
51928;BME280;37953;52.806;18.270;2023-09-07T08:40:39;101750.91;;;20.12;100.00
51928;BME280;37953;52.806;18.270;2023-09-07T08:43:09;101757.03;;;20.14;100.00
51928;BME280;37953;52.806;18.270;2023-09-07T08:45:41;101751.69;;;20.19;100.00
51928;BME280;37953;52.806;18.270;2023-09-07T08:48:10;101757.78;;;20.23;100.00
51928;BME280;37953;52.806;18.270;2023-09-07T08:50:44;101748.91;;;20.28;100.00
51928;BME280;37953;52.806;18.270;2023-09-07T08:53:17;101741.81;;;20.32;100.00
51928;BME280;37953;52.806;18.270;2023-09-07T08:55:44;101734.69;;;20.36;100.00
51928;BME280;37953;52.806;18.270;2023-09-07T08:58:10;101739.88;;;20.42;100.00
51928;BME280;37953;52.806;18.270;2023-09-07T09:00:39;101746.00;;;20.44;100.00
51928;BME280;37953;52.806;18.270;2023-09-07T09:03:13;101742.38;;;20.49;100.00
51928;BME280;37953;52.806;18.270;2023-09-07T09:05:46;101747.59;;;20.52;100.00
51928;BME280;37953;52.806;18.270;2023-09-07T09:08:15;101736.94;;;20.57;100.00
51928;BME280;37953;52.806;18.270;2023-09-07T09:10:46;101733.34;;;20.63;100.00
51928;BME280;37953;52.806;18.270;2023-09-07T09:13:27;101740.31;;;20.68;100.00
51928;BME280;37953;52.806;18.270;2023-09-07T09:15:53;101736.72;;;20.71;100.00
51928;BME280;37953;52.806;18.270;2023-09-07T09:18:22;101740.22;;;20.73;100.00
51928;BME280;37953;52.806;18.270;2023-09-07T09:20:48;101733.94;;;20.79;100.00
51928;BME280;37953;52.806;18.270;2023-09-07T09:23:15;101732.06;;;20.84;100.00
51928;BME280;37953;52.806;18.270;2023-09-07T09:25:41;101731.97;;;20.88;100.00
51928;BME280;37953;52.806;18.270;2023-09-07T09:28:10;101730.97;;;20.96;100.00
51928;BME280;37953;52.806;18.270;2023-09-07T09:30:37;101737.03;;;21.01;100.00
51928;BME280;37953;52.806;18.270;2023-09-07T09:33:03;101727.28;;;21.04;100.00
51928;BME280;37953;52.806;18.270;2023-09-07T09:35:31;101734.19;;;21.10;100.00
51928;BME280;37953;52.806;18.270;2023-09-07T09:38:01;101723.56;;;21.13;100.00
51928;BME280;37953;52.806;18.270;2023-09-07T09:40:33;101720.72;;;21.21;100.00
51928;BME280;37953;52.806;18.270;2023-09-07T09:43:03;101717.97;;;21.27;100.00
51928;BME280;37953;52.806;18.270;2023-09-07T09:45:32;101724.06;;;21.30;100.00
51928;BME280;37953;52.806;18.270;2023-09-07T09:47:59;101710.75;;;21.35;100.00
51928;BME280;37953;52.806;18.270;2023-09-07T09:50:26;101721.19;;;21.43;100.00
51928;BME280;37953;52.806;18.270;2023-09-07T09:52:53;101717.59;;;21.45;100.00
51928;BME280;37953;52.806;18.270;2023-09-07T09:55:20;101714.91;;;21.48;100.00
51928;BME280;37953;52.806;18.270;2023-09-07T09:57:46;101713.06;;;21.50;100.00
51928;BME280;37953;52.806;18.270;2023-09-07T10:00:12;101710.38;;;21.53;100.00
51928;BME280;37953;52.806;18.270;2023-09-07T10:03:08;101709.38;;;21.58;100.00
51928;BME280;37953;52.806;18.270;2023-09-07T10:05:40;101708.41;;;21.62;100.00
51928;BME280;37953;52.806;18.270;2023-09-07T10:08:17;101707.44;;;21.66;100.00
51928;BME280;37953;52.806;18.270;2023-09-07T10:10:46;101710.03;;;21.67;100.00
51928;BME280;37953;52.806;18.270;2023-09-07T10:13:16;101711.53;;;21.78;100.00
51928;BME280;37953;52.806;18.270;2023-09-07T10:15:43;101708.88;;;21.79;100.00
51928;BME280;37953;52.806;18.270;2023-09-07T10:18:15;101703.41;;;21.87;100.00
51928;BME280;37953;52.806;18.270;2023-09-07T10:20:54;101697.13;;;21.91;100.00
51928;BME280;37953;52.806;18.270;2023-09-07T10:23:22;101703.97;;;22.00;100.00
51928;BME280;37953;52.806;18.270;2023-09-07T10:25:53;101701.22;;;22.03;100.00
51928;BME280;37953;52.806;18.270;2023-09-07T10:28:20;101698.47;;;22.07;100.00
51928;BME280;37953;52.806;18.270;2023-09-07T10:31:30;101701.00;;;22.12;100.00
51928;BME280;37953;52.806;18.270;2023-09-07T10:33:49;101697.44;;;22.13;100.00
51928;BME280;37953;52.806;18.270;2023-09-07T10:36:22;101698.25;;;22.16;100.00
51928;BME280;37953;52.806;18.270;2023-09-07T10:38:58;101699.84;;;22.24;100.00
51928;BME280;37953;52.806;18.270;2023-09-07T10:41:27;101698.78;;;22.31;100.00
51928;BME280;37953;52.806;18.270;2023-09-07T10:43:55;101699.44;;;22.39;100.00
51928;BME280;37953;52.806;18.270;2023-09-07T10:46:23;101697.53;;;22.44;100.00
51928;BME280;37953;52.806;18.270;2023-09-07T10:48:50;101698.41;;;22.45;100.00
51928;BME280;37953;52.806;18.270;2023-09-07T10:51:18;101694.84;;;22.46;100.00
51928;BME280;37953;52.806;18.270;2023-09-07T10:53:45;101693.94;;;22.47;100.00
51928;BME280;37953;52.806;18.270;2023-09-07T10:56:11;101694.75;;;22.49;100.00
51928;BME280;37953;52.806;18.270;2023-09-07T10:58:38;101694.72;;;22.50;100.00
51928;BME280;37953;52.806;18.270;2023-09-07T11:01:09;101690.19;;;22.54;100.00
51928;BME280;37953;52.806;18.270;2023-09-07T11:03:36;101690.13;;;22.57;100.00
51928;BME280;37953;52.806;18.270;2023-09-07T11:08:32;101683.38;;;22.76;100.00
51928;BME280;37953;52.806;18.270;2023-09-07T11:11:00;101686.84;;;22.80;100.00
51928;BME280;37953;52.806;18.270;2023-09-07T11:13:28;101685.84;;;22.84;100.00
51928;BME280;37953;52.806;18.270;2023-09-07T11:15:55;101686.69;;;22.85;100.00
51928;BME280;37953;52.806;18.270;2023-09-07T11:18:22;101687.50;;;22.87;100.00
51928;BME280;37953;52.806;18.270;2023-09-07T11:20:50;101679.47;;;22.90;100.00
51928;BME280;37953;52.806;18.270;2023-09-07T11:23:19;101674.97;;;22.92;100.00
51928;BME280;37953;52.806;18.270;2023-09-07T11:25:49;101670.44;;;22.97;100.00
51928;BME280;37953;52.806;18.270;2023-09-07T11:28:17;101669.41;;;23.03;100.00
51928;BME280;37953;52.806;18.270;2023-09-07T11:30:50;101680.78;;;23.06;100.00
51928;BME280;37953;52.806;18.270;2023-09-07T11:33:20;101675.41;;;23.09;100.00
51928;BME280;37953;52.806;18.270;2023-09-07T11:35:47;101670.94;;;23.11;100.00
51928;BME280;37953;52.806;18.270;2023-09-07T11:38:15;101672.66;;;23.12;100.00
51928;BME280;37953;52.806;18.270;2023-09-07T11:40:42;101675.97;;;23.19;100.00
51928;BME280;37953;52.806;18.270;2023-09-07T11:43:14;101674.06;;;23.24;100.00
51928;BME280;37953;52.806;18.270;2023-09-07T11:45:42;101673.09;;;23.27;100.00
51928;BME280;37953;52.806;18.270;2023-09-07T11:48:09;101673.06;;;23.28;100.00
51928;BME280;37953;52.806;18.270;2023-09-07T11:50:36;101670.31;;;23.31;100.00
51928;BME280;37953;52.806;18.270;2023-09-07T11:53:09;101668.47;;;23.33;100.00
51928;BME280;37953;52.806;18.270;2023-09-07T11:55:36;101667.47;;;23.37;100.00
51928;BME280;37953;52.806;18.270;2023-09-07T11:58:04;101669.09;;;23.42;100.00
51928;BME280;37953;52.806;18.270;2023-09-07T12:00:33;101670.75;;;23.46;100.00
51928;BME280;37953;52.806;18.270;2023-09-07T12:02:59;101668.13;;;23.44;100.00
51928;BME280;37953;52.806;18.270;2023-09-07T12:05:25;101670.66;;;23.47;100.00
51928;BME280;37953;52.806;18.270;2023-09-07T12:07:51;101672.31;;;23.51;100.00
51928;BME280;37953;52.806;18.270;2023-09-07T12:10:18;101669.47;;;23.57;100.00
51928;BME280;37953;52.806;18.270;2023-09-07T12:12:44;101666.72;;;23.61;100.00
51928;BME280;37953;52.806;18.270;2023-09-07T12:15:10;101657.78;;;23.63;100.00
51928;BME280;37953;52.806;18.270;2023-09-07T12:17:40;101656.81;;;23.66;100.00
51928;BME280;37953;52.806;18.270;2023-09-07T12:20:06;101654.81;;;23.72;100.00
51928;BME280;37953;52.806;18.270;2023-09-07T12:22:36;101645.00;;;23.76;100.00
51928;BME280;37953;52.806;18.270;2023-09-07T12:25:04;101659.06;;;23.80;100.00
51928;BME280;37953;52.806;18.270;2023-09-07T12:27:35;101658.94;;;23.83;100.00
51928;BME280;37953;52.806;18.270;2023-09-07T12:30:02;101654.41;;;23.86;100.00
51928;BME280;37953;52.806;18.270;2023-09-07T12:32:32;101643.84;;;23.85;100.00
51928;BME280;37953;52.806;18.270;2023-09-07T12:34:59;101646.59;;;23.82;100.00